Terminal Aerodrome Forecast
Issued by NWS

Home | Current Version | Previous Version | Graphics & Text | Print | Product List | Glossary On
Versions: 1 2 3 4 5 6 7 8 9 10 11 12 13 14 15 16 17 18 19 20
877
FTUS43 KTOP 230520
TAFMHK
TAF
KMHK 230520Z 2306/2406 27002KT 1 1/2SM BR OVC004
     FM231500 36004KT 6SM BR SCT004 BKN010
     FM231800 06006KT P6SM SCT020=

USA.gov is the U.S. government's official web portal to all federal, state and local government web resources and services.